Time;durP1;ratioP1;P1;durP2;ratioP2;P2;SDS_P1;SDS_P2;PMS_P1;PMS_P2;Temp;Humidity;BMP_temperature;BMP_pressure;BME280_temperature;BME280_humidity;BME280_pressure;Samples;Min_cycle;Max_cycle;Signal;HPM_P1;HPM_P2
2024/04/23 00:01:21;;;;;;;;;;;;;;;3.39;57.96;98176.25;5493220;26;19940;-56
2024/04/23 00:04:11;;;;;;;;;;;;;;;3.40;58.12;98177.03;5505791;25;19927;-56
2024/04/23 00:06:59;;;;;;;;;;;;;;;3.33;58.68;98171.09;5491800;26;20500;-56
2024/04/23 00:09:51;;;;;;;;;;;;;;;3.22;58.66;98177.47;5511967;26;19927;-56
2024/04/23 00:12:38;;;;;;;;;;;;;;;3.08;59.25;98172.50;5504309;25;20051;-57
2024/04/23 00:15:28;;;;;;;;;;;;;;;3.00;59.33;98167.63;5498784;25;19941;-56
2024/04/23 00:18:15;;;;;;;;;;;;;;;3.11;58.47;98166.63;5501687;26;19928;-56
2024/04/23 00:21:05;;;;;;;;;;;;;;;3.06;59.03;98169.28;5521491;25;19935;-57
2024/04/23 00:23:52;;;;;;;;;;;;;;;3.05;59.19;98170.34;5494236;26;19928;-57
2024/04/23 00:26:45;;;;;;;;;;;;;;;3.07;58.69;98168.22;5515976;26;20360;-59
2024/04/23 00:29:32;;;;;;;;;;;;;;;3.06;59.59;98163.91;5505258;25;19934;-57
2024/04/23 00:32:22;;;;;;;;;;;;;;;3.11;58.67;98157.78;5539620;25;19927;-58
2024/04/23 00:35:09;;;;;;;;;;;;;;;3.01;59.11;98149.66;5518239;26;19927;-58
2024/04/23 00:37:59;;;;;;;;;;;;;;;2.97;59.23;98152.03;5514700;25;19939;-56
2024/04/23 00:40:49;;;;;;;;;;;;;;;2.94;58.47;98141.81;5497895;26;19928;-57
2024/04/23 00:43:39;;;;;;;;;;;;;;;2.91;58.02;98147.69;5499997;26;19931;-56
2024/04/23 00:46:29;;;;;;;;;;;;;;;2.91;58.61;98145.00;5516964;25;19941;-56
2024/04/23 00:49:16;;;;;;;;;;;;;;;2.96;58.06;98134.31;5485750;26;20253;-56
2024/04/23 00:52:06;;;;;;;;;;;;;;;2.97;57.35;98132.44;5497954;26;19935;-56
2024/04/23 00:54:53;;;;;;;;;;;;;;;2.94;58.31;98136.44;5486397;26;19936;-56
2024/04/23 00:57:43;;;;;;;;;;;;;;;2.91;56.53;98133.47;5508553;26;20324;-56
2024/04/23 01:00:33;;;;;;;;;;;;;;;2.85;57.32;98128.06;5530183;25;19952;-56
2024/04/23 01:03:23;;;;;;;;;;;;;;;2.85;57.08;98129.94;5484982;26;19940;-57
2024/04/23 01:06:10;;;;;;;;;;;;;;;2.84;57.35;98128.31;5509170;25;19939;-56
2024/04/23 01:09:02;;;;;;;;;;;;;;;2.80;57.14;98124.50;5492359;26;19977;-56
2024/04/23 01:11:52;;;;;;;;;;;;;;;2.83;56.63;98113.28;5515297;26;19927;-56
2024/04/23 01:14:41;;;;;;;;;;;;;;;2.77;57.01;98119.66;5487946;26;19955;-56
2024/04/23 01:17:33;;;;;;;;;;;;;;;2.85;56.43;98116.50;5498193;26;19943;-56
2024/04/23 01:20:21;;;;;;;;;;;;;;;2.70;56.95;98119.06;5509090;26;19935;-56
2024/04/23 01:23:13;;;;;;;;;;;;;;;2.61;56.69;98122.22;5512096;26;19995;-56
2024/04/23 01:26:08;;;;;;;;;;;;;;;2.62;57.66;98120.34;5484971;26;20046;-56
2024/04/23 01:28:57;;;;;;;;;;;;;;;2.62;57.16;98118.47;5511571;26;19931;-56
2024/04/23 01:31:45;;;;;;;;;;;;;;;2.63;56.82;98113.91;5489597;26;19999;-56
2024/04/23 01:34:35;;;;;;;;;;;;;;;2.57;56.43;98110.38;5493884;26;20309;-56
2024/04/23 01:37:22;;;;;;;;;;;;;;;2.57;56.19;98104.22;5503136;26;19936;-56
2024/04/23 01:40:12;;;;;;;;;;;;;;;2.54;56.74;98105.50;5501443;26;19927;-56
2024/04/23 01:43:05;;;;;;;;;;;;;;;2.58;56.46;98106.63;5506925;26;20028;-56
2024/04/23 01:45:52;;;;;;;;;;;;;;;2.56;56.44;98102.59;5515230;26;20370;-57
2024/04/23 01:48:41;;;;;;;;;;;;;;;2.47;56.47;98096.06;5506401;26;20314;-56
2024/04/23 01:51:28;;;;;;;;;;;;;;;2.59;56.99;98097.50;5504776;25;19935;-55
2024/04/23 01:54:19;;;;;;;;;;;;;;;2.55;57.01;98090.22;5518148;25;19934;-56
2024/04/23 01:57:06;;;;;;;;;;;;;;;2.53;56.99;98093.16;5507545;25;19984;-57
2024/04/23 01:59:59;;;;;;;;;;;;;;;2.41;56.72;98092.53;5518276;26;19934;-56
2024/04/23 02:02:47;;;;;;;;;;;;;;;2.35;57.32;98097.03;5511233;26;19943;-56
2024/04/23 02:05:37;;;;;;;;;;;;;;;2.35;57.39;98096.22;5511993;25;19934;-56
2024/04/23 02:08:24;;;;;;;;;;;;;;;2.31;57.75;98079.03;5525528;25;19934;-56
2024/04/23 02:11:14;;;;;;;;;;;;;;;2.38;57.74;98098.38;5518767;25;20341;-56
2024/04/23 02:14:01;;;;;;;;;;;;;;;2.36;58.04;98103.19;5510988;26;19928;-56
2024/04/23 02:16:54;;;;;;;;;;;;;;;2.30;58.34;98104.22;5518299;26;19952;-57
2024/04/23 02:19:46;;;;;;;;;;;;;;;2.39;57.84;98100.00;5517092;26;19935;-56
2024/04/23 02:22:34;;;;;;;;;;;;;;;2.41;58.18;98105.13;5502216;26;20252;-56
2024/04/23 02:25:25;;;;;;;;;;;;;;;2.40;57.00;98106.16;5499339;26;19928;-56
2024/04/23 02:28:13;;;;;;;;;;;;;;;2.40;57.23;98114.22;5484780;26;19928;-56
2024/04/23 02:31:02;;;;;;;;;;;;;;;2.29;57.71;98116.81;5492304;26;19928;-56
2024/04/23 02:33:55;;;;;;;;;;;;;;;2.25;57.83;98123.75;5486703;26;19942;-56
2024/04/23 02:36:42;;;;;;;;;;;;;;;2.24;58.01;98127.50;5506064;26;20353;-56
2024/04/23 02:39:32;;;;;;;;;;;;;;;2.26;58.45;98124.53;5511680;26;19973;-57
2024/04/23 02:42:19;;;;;;;;;;;;;;;2.24;57.46;98121.31;5517350;25;20389;-56
2024/04/23 02:45:09;;;;;;;;;;;;;;;2.15;57.63;98122.81;5527987;25;19939;-56
2024/04/23 02:47:58;;;;;;;;;;;;;;;2.06;57.81;98115.22;5497469;26;19932;-56
2024/04/23 02:50:51;;;;;;;;;;;;;;;2.12;58.00;98123.31;5521780;25;20278;-55
2024/04/23 02:53:38;;;;;;;;;;;;;;;2.16;58.58;98108.34;5486381;26;19977;-56
2024/04/23 02:56:28;;;;;;;;;;;;;;;2.17;57.95;98110.78;5507985;25;19933;-56
2024/04/23 02:59:15;;;;;;;;;;;;;;;2.17;57.77;98096.56;5518297;26;19934;-56
2024/04/23 03:02:10;;;;;;;;;;;;;;;2.19;56.80;98092.59;5514456;25;19942;-56
2024/04/23 03:05:00;;;;;;;;;;;;;;;2.26;56.71;98092.38;5507254;25;20348;-56
2024/04/23 03:07:50;;;;;;;;;;;;;;;2.17;56.25;98083.16;5500167;26;20000;-56
2024/04/23 03:10:39;;;;;;;;;;;;;;;2.08;56.32;98075.59;5509842;26;19927;-56
2024/04/23 03:13:27;;;;;;;;;;;;;;;2.09;56.87;98076.41;5522775;25;19937;-56
2024/04/23 03:16:17;;;;;;;;;;;;;;;2.03;56.48;98074.72;5497651;26;20433;-56
2024/04/23 03:19:04;;;;;;;;;;;;;;;1.83;57.35;98072.63;5508296;25;19996;-56
2024/04/23 03:21:54;;;;;;;;;;;;;;;1.87;56.80;98073.75;5532521;25;19942;-56
2024/04/23 03:24:47;;;;;;;;;;;;;;;1.84;58.14;98074.25;5508236;26;20353;-56
2024/04/23 03:27:36;;;;;;;;;;;;;;;1.84;57.76;98079.59;5508117;26;19980;-56
2024/04/23 03:30:23;;;;;;;;;;;;;;;1.90;57.99;98083.94;5511912;26;20368;-56
2024/04/23 03:33:13;;;;;;;;;;;;;;;1.91;57.90;98084.75;5515824;26;19927;-56
2024/04/23 03:36:00;;;;;;;;;;;;;;;1.83;57.84;98080.66;5486858;25;19932;-56
2024/04/23 03:38:50;;;;;;;;;;;;;;;1.88;57.68;98091.44;5510379;26;19927;-56
2024/04/23 03:41:54;;;;;;;;;;;;;;;1.81;57.52;98080.09;5520517;25;19926;-58
2024/04/23 03:44:44;;;;;;;;;;;;;;;1.82;56.65;98077.19;5523060;25;19939;-56
2024/04/23 03:47:36;;;;;;;;;;;;;;;1.83;56.77;98076.13;5515342;26;19934;-56
2024/04/23 03:50:23;;;;;;;;;;;;;;;1.71;56.67;98075.44;5498284;26;19935;-56
2024/04/23 03:53:16;;;;;;;;;;;;;;;1.66;56.90;98070.03;5491193;26;20334;-56
2024/04/23 03:56:04;;;;;;;;;;;;;;;1.62;56.87;98070.78;5493856;26;19931;-57
2024/04/23 03:58:56;;;;;;;;;;;;;;;1.58;57.10;98071.25;5511714;25;19927;-56
2024/04/23 04:01:43;;;;;;;;;;;;;;;1.67;56.78;98060.94;5494395;25;19927;-56
2024/04/23 04:07:41;;;;;;;;;;;;;;;1.70;57.27;98056.94;5455599;26;19935;-56
2024/04/23 04:10:31;;;;;;;;;;;;;;;1.75;57.50;98062.34;5515381;25;19939;-55
2024/04/23 04:13:20;;;;;;;;;;;;;;;1.76;57.13;98061.31;5516981;25;19933;-56
2024/04/23 04:16:15;;;;;;;;;;;;;;;1.91;56.24;98057.97;5500653;25;19938;-56
2024/04/23 04:19:02;;;;;;;;;;;;;;;1.81;56.13;98059.50;5514329;26;20364;-56
2024/04/23 04:21:52;;;;;;;;;;;;;;;1.82;55.44;98052.25;5516855;26;20402;-56
2024/04/23 04:24:39;;;;;;;;;;;;;;;1.65;55.74;98051.50;5494631;26;19996;-56
2024/04/23 04:27:28;;;;;;;;;;;;;;;1.70;55.60;98051.56;5519260;25;19928;-60
2024/04/23 04:30:15;;;;;;;;;;;;;;;1.82;55.47;98055.75;5515350;25;19942;-56
2024/04/23 04:33:08;;;;;;;;;;;;;;;1.81;55.31;98053.28;5493201;26;19928;-56
2024/04/23 04:35:55;;;;;;;;;;;;;;;1.78;55.81;98049.25;5510531;25;20284;-56
2024/04/23 04:38:45;;;;;;;;;;;;;;;1.76;56.44;98053.28;5503189;25;20115;-55
2024/04/23 04:41:35;;;;;;;;;;;;;;;1.89;55.56;98050.19;5505512;25;20297;-56
2024/04/23 04:44:23;;;;;;;;;;;;;;;2.01;54.90;98048.16;5511882;26;19927;-56
2024/04/23 04:47:14;;;;;;;;;;;;;;;1.89;54.97;98050.19;5512917;26;19931;-55
2024/04/23 04:50:04;;;;;;;;;;;;;;;1.91;55.50;98055.28;5514470;26;19995;-56
2024/04/23 04:52:57;;;;;;;;;;;;;;;2.02;55.32;98055.13;5516134;26;19928;-55
2024/04/23 04:55:44;;;;;;;;;;;;;;;2.14;54.96;98048.84;5520759;26;19934;-55
2024/04/23 04:58:34;;;;;;;;;;;;;;;2.21;54.57;98054.78;5519078;26;19927;-56
2024/04/23 05:01:21;;;;;;;;;;;;;;;2.30;54.09;98055.97;5507804;25;20318;-55
2024/04/23 05:04:11;;;;;;;;;;;;;;;2.32;54.60;98053.81;5504070;26;19996;-55
2024/04/23 05:07:00;;;;;;;;;;;;;;;2.40;54.13;98060.59;5510057;26;19928;-55
2024/04/23 05:09:51;;;;;;;;;;;;;;;2.44;52.95;98051.78;5508967;25;19928;-65
2024/04/23 05:12:38;;;;;;;;;;;;;;;2.54;53.61;98056.44;5507052;26;20384;-55
2024/04/23 05:15:28;;;;;;;;;;;;;;;2.52;52.92;98054.00;5498354;26;20368;-56
2024/04/23 05:18:16;;;;;;;;;;;;;;;2.57;53.50;98054.06;5508026;25;19995;-55
2024/04/23 05:21:06;;;;;;;;;;;;;;;2.68;52.46;98057.63;5510333;26;19927;-55
2024/04/23 05:23:55;;;;;;;;;;;;;;;2.79;51.98;98058.50;5505989;25;20024;-55
2024/04/23 05:26:45;;;;;;;;;;;;;;;2.85;52.36;98052.91;5505491;25;20330;-56
2024/04/23 05:29:33;;;;;;;;;;;;;;;2.98;52.31;98064.25;5519163;25;19939;-56
2024/04/23 05:35:29;;;;;;;;;;;;;;;3.14;50.51;98066.81;5515581;26;19935;-55
2024/04/23 05:38:18;;;;;;;;;;;;;;;3.06;50.42;98067.28;5490024;26;20355;-55
2024/04/23 05:41:11;;;;;;;;;;;;;;;3.21;50.06;98065.78;5496299;26;20373;-55
2024/04/23 05:44:01;;;;;;;;;;;;;;;3.25;50.19;98061.47;5498172;26;20373;-56
2024/04/23 05:46:51;;;;;;;;;;;;;;;3.36;49.60;98063.19;5533997;25;19927;-55
2024/04/23 05:50:00;;;;;;;;;;;;;;;3.32;49.17;98062.88;5522530;26;19927;-56
2024/04/23 05:53:28;;;;;;;;;;;;;;;3.34;49.17;98066.09;5516123;25;20020;-56
2024/04/23 05:56:37;;;;;;;;;;;;;;;3.25;49.07;98061.47;5502187;26;19935;-55
2024/04/23 05:59:26;;;;;;;;;;;;;;;3.29;49.40;98062.59;5518531;25;19927;-56
2024/04/23 06:02:16;;;;;;;;;;;;;;;3.21;48.81;98061.22;5509652;25;19939;-56
2024/04/23 06:05:06;;;;;;;;;;;;;;;3.25;48.88;98061.47;5502478;25;19996;-56
2024/04/23 06:07:57;;;;;;;;;;;;;;;3.23;48.86;98060.94;5515027;26;19991;-55
2024/04/23 06:10:49;;;;;;;;;;;;;;;3.22;48.50;98056.66;5503342;26;20364;-55
2024/04/23 06:13:47;;;;;;;;;;;;;;;3.24;48.80;98059.88;5495953;25;20360;-56
2024/04/23 06:16:37;;;;;;;;;;;;;;;3.23;48.35;98056.38;5515863;25;19927;-56
2024/04/23 06:19:25;;;;;;;;;;;;;;;3.29;48.04;98057.22;5505105;26;19927;-57
2024/04/23 06:22:15;;;;;;;;;;;;;;;3.35;48.62;98056.16;5519691;25;19931;-56
2024/04/23 06:25:05;;;;;;;;;;;;;;;3.52;47.69;98059.50;5506398;25;19938;-55
2024/04/23 06:27:52;;;;;;;;;;;;;;;3.64;47.24;98054.69;5504507;26;19940;-56
2024/04/23 06:30:45;;;;;;;;;;;;;;;3.62;47.06;98054.16;5531223;25;19927;-55
2024/04/23 06:33:32;;;;;;;;;;;;;;;3.72;46.86;98052.56;5510615;25;19928;-56
2024/04/23 06:36:22;;;;;;;;;;;;;;;3.86;46.39;98053.69;5495482;26;19927;-57
2024/04/23 06:39:09;;;;;;;;;;;;;;;3.91;45.83;98045.66;5507263;25;19928;-56
2024/04/23 06:41:58;;;;;;;;;;;;;;;3.97;46.25;98047.28;5519021;25;19938;-56
2024/04/23 06:44:45;;;;;;;;;;;;;;;4.07;45.64;98047.31;5495888;26;19928;-56
2024/04/23 06:47:38;;;;;;;;;;;;;;;4.10;45.34;98044.09;5508035;25;19935;-56
2024/04/23 06:50:25;;;;;;;;;;;;;;;4.16;45.16;98048.41;5521006;26;20428;-55
2024/04/23 06:53:15;;;;;;;;;;;;;;;4.22;45.03;98037.66;5497233;26;19936;-55
2024/04/23 06:56:02;;;;;;;;;;;;;;;4.42;45.48;98040.34;5503541;26;19928;-56
2024/04/23 06:58:52;;;;;;;;;;;;;;;4.51;44.00;98036.06;5529988;25;20268;-56
2024/04/23 07:01:39;;;;;;;;;;;;;;;4.67;44.16;98034.19;5504432;26;20413;-55
2024/04/23 07:04:31;;;;;;;;;;;;;;;4.75;44.24;98036.34;5507860;25;19932;-56
2024/04/23 07:07:19;;;;;;;;;;;;;;;4.90;44.35;98030.09;5517915;25;19928;-59
2024/04/23 07:10:09;;;;;;;;;;;;;;;5.19;43.31;98028.44;5509905;26;19928;-56
2024/04/23 07:12:59;;;;;;;;;;;;;;;5.32;43.16;98032.44;5499556;25;19939;-55
2024/04/23 07:15:46;;;;;;;;;;;;;;;5.34;42.77;98038.38;5502489;26;20276;-55
2024/04/23 07:18:36;;;;;;;;;;;;;;;5.48;42.23;98034.00;5495553;26;19934;-56
2024/04/23 07:21:38;;;;;;;;;;;;;;;5.46;42.45;98035.38;5502556;26;20366;-56
2024/04/23 07:24:28;;;;;;;;;;;;;;;5.65;41.88;98028.31;5502416;26;19928;-56
2024/04/23 07:27:15;;;;;;;;;;;;;;;5.61;42.76;98027.25;5506061;26;19928;-56
2024/04/23 07:30:06;;;;;;;;;;;;;;;5.89;43.22;98027.66;5512301;26;20377;-56
2024/04/23 07:32:55;;;;;;;;;;;;;;;6.04;41.96;98027.59;5484709;26;20401;-56
2024/04/23 07:35:45;;;;;;;;;;;;;;;6.18;40.63;98031.28;5513711;26;20388;-55
2024/04/23 07:38:37;;;;;;;;;;;;;;;6.28;40.64;98015.03;5488226;26;20298;-56
2024/04/23 07:41:26;;;;;;;;;;;;;;;6.18;42.25;98023.19;5487507;26;20180;-56
2024/04/23 07:44:16;;;;;;;;;;;;;;;6.38;41.37;98018.72;5504914;26;19935;-56
2024/04/23 07:47:03;;;;;;;;;;;;;;;6.46;40.84;98015.44;5507787;26;19961;-56
2024/04/23 07:49:53;;;;;;;;;;;;;;;6.40;41.21;98005.78;5499557;26;19928;-55
2024/04/23 07:52:40;;;;;;;;;;;;;;;6.40;41.38;98011.19;5500676;26;19935;-56
2024/04/23 07:55:33;;;;;;;;;;;;;;;6.46;41.61;98007.34;5495698;26;19956;-56
2024/04/23 07:58:20;;;;;;;;;;;;;;;6.54;41.69;98012.94;5518491;25;20366;-56
2024/04/23 08:01:11;;;;;;;;;;;;;;;6.70;41.48;98010.91;5508256;26;19934;-56
2024/04/23 08:04:01;;;;;;;;;;;;;;;6.67;41.12;98008.00;5494737;25;19964;-57
2024/04/23 08:06:48;;;;;;;;;;;;;;;6.82;40.95;98005.16;5507835;25;20373;-56
2024/04/23 08:09:38;;;;;;;;;;;;;;;6.91;40.95;98010.72;5495453;26;20377;-55
2024/04/23 08:12:28;;;;;;;;;;;;;;;6.87;41.19;98005.13;5521614;25;19935;-56
2024/04/23 08:15:21;;;;;;;;;;;;;;;6.88;41.53;98005.91;5503888;26;20292;-56
2024/04/23 08:18:11;;;;;;;;;;;;;;;7.29;42.34;97996.28;5512738;26;19939;-56
2024/04/23 08:21:05;;;;;;;;;;;;;;;7.48;41.07;97996.34;5488449;26;19940;-57
2024/04/23 08:23:55;;;;;;;;;;;;;;;7.64;41.21;97990.75;5502557;26;19934;-56
2024/04/23 08:26:42;;;;;;;;;;;;;;;7.68;40.93;97984.47;5508044;25;20339;-56
2024/04/23 08:29:35;;;;;;;;;;;;;;;7.77;40.61;97990.81;5484412;26;19997;-56
2024/04/23 08:32:22;;;;;;;;;;;;;;;7.74;40.12;97988.72;5526750;25;19938;-56
2024/04/23 08:35:16;;;;;;;;;;;;;;;8.04;39.76;97997.50;5506850;26;19927;-56
2024/04/23 08:38:06;;;;;;;;;;;;;;;7.95;40.53;97993.84;5499725;26;19935;-57
2024/04/23 08:40:56;;;;;;;;;;;;;;;8.01;40.64;97995.38;5508091;26;19927;-56
2024/04/23 08:43:46;;;;;;;;;;;;;;;7.95;40.42;97996.56;5501087;26;19942;-56
2024/04/23 08:46:39;;;;;;;;;;;;;;;8.08;40.43;97993.09;5498482;21;19935;-70
2024/04/23 08:49:26;;;;;;;;;;;;;;;8.20;40.57;97987.25;5466894;26;19940;-70
2024/04/23 08:52:16;;;;;;;;;;;;;;;8.34;40.03;97986.22;5466583;26;19960;-70
2024/04/23 08:55:03;;;;;;;;;;;;;;;8.19;39.51;97974.81;5453555;26;19933;-70
2024/04/23 08:57:55;;;;;;;;;;;;;;;8.36;40.10;97977.81;5455826;26;20257;-70
2024/04/23 09:00:45;;;;;;;;;;;;;;;8.77;38.93;97974.44;5463013;26;19932;-72
2024/04/23 09:03:42;;;;;;;;;;;;;;;8.92;38.84;97980.41;5463488;26;19940;-71
2024/04/23 09:06:32;;;;;;;;;;;;;;;8.80;38.04;97982.00;5470031;26;19928;-70
2024/04/23 09:09:21;;;;;;;;;;;;;;;8.71;38.74;97970.22;5462413;26;19944;-71
2024/04/23 09:12:11;;;;;;;;;;;;;;;8.80;39.39;97971.97;5472402;26;19936;-70
2024/04/23 09:14:58;;;;;;;;;;;;;;;8.74;38.70;97958.81;5467453;26;19932;-70
2024/04/23 09:17:54;;;;;;;;;;;;;;;8.75;39.04;97955.00;5470262;26;19951;-69
2024/04/23 09:20:46;;;;;;;;;;;;;;;8.69;39.16;97957.00;5463851;26;19928;-70
2024/04/23 09:23:34;;;;;;;;;;;;;;;8.86;38.46;97951.00;5464814;26;20276;-70
2024/04/23 09:26:27;;;;;;;;;;;;;;;8.94;39.46;97950.28;5440105;26;19928;-70
2024/04/23 09:29:15;;;;;;;;;;;;;;;9.09;39.30;97944.59;5454373;26;19939;-71
2024/04/23 09:32:06;;;;;;;;;;;;;;;9.22;37.59;97929.44;5462507;26;19996;-71
2024/04/23 09:34:53;;;;;;;;;;;;;;;9.25;38.07;97936.16;5450815;26;20291;-73
2024/04/23 09:37:52;;;;;;;;;;;;;;;9.45;37.19;97935.75;5460422;26;19940;-73
2024/04/23 09:40:39;;;;;;;;;;;;;;;9.39;37.05;97932.34;5485893;26;19972;-74
2024/04/23 09:43:30;;;;;;;;;;;;;;;9.44;37.46;97929.53;5474791;26;19963;-73
2024/04/23 09:46:17;;;;;;;;;;;;;;;9.35;36.75;97920.50;5487397;26;19996;-74
2024/04/23 09:49:07;;;;;;;;;;;;;;;9.57;37.25;97924.38;5466782;26;19939;-76
2024/04/23 09:51:55;;;;;;;;;;;;;;;9.49;37.73;97914.25;5485095;26;19927;-75
2024/04/23 09:54:48;;;;;;;;;;;;;;;9.60;37.76;97915.66;5472032;26;19928;-76
2024/04/23 09:57:35;;;;;;;;;;;;;;;9.62;37.45;97908.00;5468644;26;19939;-74
2024/04/23 10:00:25;;;;;;;;;;;;;;;9.70;37.25;97912.72;5481408;26;20359;-72
2024/04/23 10:03:12;;;;;;;;;;;;;;;9.80;36.64;97912.47;5488206;26;19993;-74
2024/04/23 10:06:06;;;;;;;;;;;;;;;9.52;36.53;97908.22;5471062;26;19935;-72
2024/04/23 10:08:55;;;;;;;;;;;;;;;9.73;36.83;97916.72;5474388;26;20356;-76
2024/04/23 10:11:49;;;;;;;;;;;;;;;9.68;36.41;97901.34;5478851;26;19929;-74
2024/04/23 10:14:39;;;;;;;;;;;;;;;9.77;36.70;97909.56;5451999;26;19961;-74
2024/04/23 10:17:32;;;;;;;;;;;;;;;9.73;35.62;97903.94;5472100;26;19936;-74
2024/04/23 10:20:20;;;;;;;;;;;;;;;9.83;36.68;97897.50;5470074;26;19940;-73
2024/04/23 10:23:10;;;;;;;;;;;;;;;9.89;35.76;97888.91;5471652;26;19963;-73
2024/04/23 10:26:00;;;;;;;;;;;;;;;10.02;37.17;97884.56;5459766;26;19935;-72
2024/04/23 10:28:52;;;;;;;;;;;;;;;10.07;35.88;97880.94;5487466;26;19997;-73
2024/04/23 10:31:42;;;;;;;;;;;;;;;10.39;36.52;97875.25;5469242;26;20510;-74
2024/04/23 10:34:30;;;;;;;;;;;;;;;10.61;34.76;97873.63;5474038;26;20444;-73
2024/04/23 10:37:19;;;;;;;;;;;;;;;10.56;35.52;97871.03;5469973;26;20428;-73
2024/04/23 10:40:07;;;;;;;;;;;;;;;10.89;34.22;97863.34;5474804;26;20377;-73
2024/04/23 10:42:58;;;;;;;;;;;;;;;10.78;35.16;97862.81;5454023;26;19964;-72
2024/04/23 10:45:47;;;;;;;;;;;;;;;10.69;35.22;97853.81;5479227;26;19938;-71
2024/04/23 10:48:39;;;;;;;;;;;;;;;10.71;35.44;97851.63;5457937;26;19935;-72
2024/04/23 10:51:27;;;;;;;;;;;;;;;10.75;34.42;97858.00;5479546;26;20324;-72
2024/04/23 10:54:17;;;;;;;;;;;;;;;10.52;35.23;97853.75;5487769;26;19956;-71
2024/04/23 10:57:06;;;;;;;;;;;;;;;10.15;35.02;97856.53;5451488;26;20370;-71
2024/04/23 10:59:56;;;;;;;;;;;;;;;9.86;35.41;97843.41;5433831;26;20253;-75
2024/04/23 11:02:51;;;;;;;;;;;;;;;9.70;35.76;97836.75;5465171;26;19940;-74
2024/04/23 11:05:46;;;;;;;;;;;;;;;9.67;35.60;97823.78;5433177;26;20277;-73
2024/04/23 11:08:35;;;;;;;;;;;;;;;9.77;35.08;97830.88;5439322;26;19935;-73
2024/04/23 11:11:25;;;;;;;;;;;;;;;9.70;35.76;97820.47;5452267;26;19937;-73
2024/04/23 11:14:14;;;;;;;;;;;;;;;9.76;36.11;97826.59;5466810;26;19968;-75
2024/04/23 11:17:04;;;;;;;;;;;;;;;9.79;35.77;97825.94;5452285;26;19931;-73
2024/04/23 11:19:56;;;;;;;;;;;;;;;9.79;35.37;97813.19;5450597;26;19928;-74
2024/04/23 11:22:48;;;;;;;;;;;;;;;10.03;34.86;97812.09;5437248;26;19997;-74
2024/04/23 11:25:38;;;;;;;;;;;;;;;9.94;35.88;97812.00;5483098;26;20326;-74
2024/04/23 11:28:28;;;;;;;;;;;;;;;9.93;36.06;97805.78;5463109;26;20598;-74
2024/04/23 11:31:15;;;;;;;;;;;;;;;10.24;34.79;97810.47;5453302;26;19935;-74
2024/04/23 11:34:05;;;;;;;;;;;;;;;10.05;35.90;97799.78;5448809;26;19928;-74
2024/04/23 11:36:55;;;;;;;;;;;;;;;9.97;36.57;97808.69;5458521;26;20256;-73
2024/04/23 11:39:45;;;;;;;;;;;;;;;10.12;36.18;97807.47;5469104;26;19928;-74
2024/04/23 11:42:33;;;;;;;;;;;;;;;10.27;35.34;97811.75;5445783;26;19938;-74
2024/04/23 11:45:23;;;;;;;;;;;;;;;10.32;34.97;97801.56;5430336;26;20003;-74
2024/04/23 11:48:10;;;;;;;;;;;;;;;10.51;35.64;97793.19;5443275;26;19928;-74
2024/04/23 11:51:00;;;;;;;;;;;;;;;10.72;34.48;97788.00;5470140;26;20244;-74
2024/04/23 11:53:50;;;;;;;;;;;;;;;10.71;35.03;97786.41;5493730;26;19935;-74
2024/04/23 11:56:40;;;;;;;;;;;;;;;11.14;34.75;97789.22;5485205;26;19935;-74
2024/04/23 11:59:29;;;;;;;;;;;;;;;11.22;35.01;97790.34;5468016;26;19929;-75
2024/04/23 12:02:19;;;;;;;;;;;;;;;11.36;34.25;97792.91;5446631;26;19949;-73
2024/04/23 12:05:07;;;;;;;;;;;;;;;11.45;34.32;97790.97;5446666;26;19929;-73
2024/04/23 12:07:57;;;;;;;;;;;;;;;11.42;33.93;97788.91;5458054;26;19960;-73
2024/04/23 12:10:47;;;;;;;;;;;;;;;11.27;34.89;97782.03;5465439;26;19928;-73
2024/04/23 12:13:36;;;;;;;;;;;;;;;11.65;32.76;97789.56;5483807;26;19929;-73
2024/04/23 12:16:24;;;;;;;;;;;;;;;11.61;33.92;97781.25;5476535;26;20388;-73
2024/04/23 12:19:14;;;;;;;;;;;;;;;11.71;32.17;97777.38;5417595;26;19928;-73
2024/04/23 12:22:03;;;;;;;;;;;;;;;11.49;34.32;97773.72;5468985;26;19992;-73
2024/04/23 12:24:50;;;;;;;;;;;;;;;11.61;32.83;97769.53;5466073;26;19960;-74
2024/04/23 12:27:44;;;;;;;;;;;;;;;11.41;35.03;97769.09;5456952;26;20378;-73
2024/04/23 12:30:31;;;;;;;;;;;;;;;11.41;34.11;97774.53;5459238;26;19992;-73
2024/04/23 12:33:21;;;;;;;;;;;;;;;11.35;33.50;97764.94;5431857;26;19935;-72
2024/04/23 12:36:11;;;;;;;;;;;;;;;11.41;33.85;97765.56;5473095;26;19933;-72
2024/04/23 12:39:10;;;;;;;;;;;;;;;11.67;34.54;97762.84;5454545;26;19928;-73
2024/04/23 12:42:08;;;;;;;;;;;;;;;11.72;34.15;97760.75;5442201;26;19933;-70
2024/04/23 12:44:58;;;;;;;;;;;;;;;11.86;34.12;97757.84;5466896;26;19941;-71
2024/04/23 12:47:48;;;;;;;;;;;;;;;11.98;33.05;97747.09;5459581;26;19939;-71
2024/04/23 12:50:35;;;;;;;;;;;;;;;12.02;33.33;97755.44;5485415;26;19956;-71
2024/04/23 12:53:26;;;;;;;;;;;;;;;11.98;33.34;97743.56;5469835;26;20332;-71
2024/04/23 12:56:13;;;;;;;;;;;;;;;11.95;34.86;97747.75;5454992;26;19929;-72
2024/04/23 12:59:04;;;;;;;;;;;;;;;11.79;33.48;97744.72;5470374;26;20370;-71
2024/04/23 13:01:54;;;;;;;;;;;;;;;11.90;34.60;97738.97;5440163;26;20388;-70
2024/04/23 13:04:44;;;;;;;;;;;;;;;11.89;34.09;97743.63;5467865;26;19935;-76
2024/04/23 13:07:31;;;;;;;;;;;;;;;11.71;33.60;97739.28;5452599;26;19928;-76
2024/04/23 13:10:21;;;;;;;;;;;;;;;11.80;33.85;97732.69;5462349;26;20087;-77
2024/04/23 13:13:08;;;;;;;;;;;;;;;11.83;33.97;97725.84;5453612;26;20416;-78
2024/04/23 13:15:59;;;;;;;;;;;;;;;11.62;33.60;97722.97;5483099;26;20380;-78
2024/04/23 13:18:48;;;;;;;;;;;;;;;11.68;32.98;97715.44;5446133;26;19933;-76
2024/04/23 13:21:38;;;;;;;;;;;;;;;11.73;33.96;97707.13;5474415;26;19996;-76
2024/04/23 13:24:25;;;;;;;;;;;;;;;11.96;35.41;97703.06;5471565;26;19933;-78
2024/04/23 13:27:16;;;;;;;;;;;;;;;11.95;34.68;97697.97;5468502;26;19929;-78
2024/04/23 13:30:04;;;;;;;;;;;;;;;11.99;33.82;97704.34;5441488;26;19943;-79
2024/04/23 13:32:53;;;;;;;;;;;;;;;11.86;32.32;97694.47;5454597;26;19940;-78
2024/04/23 13:35:43;;;;;;;;;;;;;;;11.55;34.43;97684.56;5479147;26;20351;-78
2024/04/23 13:38:33;;;;;;;;;;;;;;;11.71;35.48;97693.00;5459148;26;20578;-75
2024/04/23 13:41:22;;;;;;;;;;;;;;;11.52;34.59;97685.22;5428262;26;19937;-78
2024/04/23 13:44:11;;;;;;;;;;;;;;;11.56;34.48;97686.19;5448792;26;20428;-75
2024/04/23 13:46:59;;;;;;;;;;;;;;;11.60;34.31;97684.41;5440908;26;19957;-76
2024/04/23 13:49:50;;;;;;;;;;;;;;;11.45;33.84;97693.06;5453075;26;19940;-76
2024/04/23 13:52:41;;;;;;;;;;;;;;;11.52;34.99;97686.03;5473600;26;19928;-79
2024/04/23 13:55:31;;;;;;;;;;;;;;;11.62;34.80;97684.09;5484284;26;19935;-76
2024/04/23 13:58:18;;;;;;;;;;;;;;;11.68;34.99;97682.78;5482473;26;19996;-76
2024/04/23 14:01:08;;;;;;;;;;;;;;;11.62;35.00;97673.22;5464713;26;19997;-76
2024/04/23 14:03:55;;;;;;;;;;;;;;;11.66;33.55;97674.94;5464953;26;19935;-77
2024/04/23 14:06:45;;;;;;;;;;;;;;;11.51;33.27;97670.81;5477465;26;19935;-86
2024/04/23 14:09:38;;;;;;;;;;;;;;;11.46;34.82;97664.75;5474441;26;19931;-78
2024/04/23 14:12:30;;;;;;;;;;;;;;;11.55;34.25;97663.59;5468260;26;19928;-78
2024/04/23 14:15:20;;;;;;;;;;;;;;;11.55;35.19;97669.03;5459459;26;19940;-89
2024/04/23 14:18:10;;;;;;;;;;;;;;;11.51;35.43;97665.38;5483648;26;19940;-72
2024/04/23 14:21:01;;;;;;;;;;;;;;;11.41;35.36;97662.22;5483788;26;19928;-91
2024/04/23 14:23:48;;;;;;;;;;;;;;;11.49;36.00;97667.63;5495110;26;19928;-87
2024/04/23 14:26:41;;;;;;;;;;;;;;;11.39;35.53;97665.22;5486850;26;19973;-87
2024/04/23 14:29:28;;;;;;;;;;;;;;;11.46;36.18;97664.75;5433104;26;19947;-73
2024/04/23 14:32:21;;;;;;;;;;;;;;;11.61;35.04;97663.41;5448222;26;19928;-88
2024/04/23 14:35:08;;;;;;;;;;;;;;;11.45;35.60;97661.25;5481633;26;19927;-83
2024/04/23 14:37:58;;;;;;;;;;;;;;;11.48;36.30;97660.56;5496553;26;20349;-93
2024/04/23 14:40:46;;;;;;;;;;;;;;;11.51;34.81;97651.78;5464995;26;19983;-83
2024/04/23 14:43:38;;;;;;;;;;;;;;;11.47;36.26;97653.53;5457955;26;19935;-86
2024/04/23 14:46:26;;;;;;;;;;;;;;;11.46;34.10;97657.38;5470454;26;20370;-83
2024/04/23 14:49:16;;;;;;;;;;;;;;;11.44;34.16;97650.66;5483099;26;19934;-77
2024/04/23 14:52:15;;;;;;;;;;;;;;;11.25;34.64;97648.31;5472110;26;19928;-76
2024/04/23 14:55:02;;;;;;;;;;;;;;;11.16;34.82;97639.34;5437326;26;19998;-79
2024/04/23 14:57:54;;;;;;;;;;;;;;;11.07;35.49;97639.34;5449217;26;19956;-78
2024/04/23 15:00:44;;;;;;;;;;;;;;;11.02;35.47;97648.50;5468665;26;19929;-78